Beardmore, Canada
Current Conditions -  °F | °C
As of 12:00 PM on Friday 19 Dec 2014 (Local Time) from CYGQ Reporting Station
Clear Clear  
Wind Chill:   Ceiling: Unl
Heat Index:   Visibility: 15mi
Dew Point:   Wind: 0mph
Humidity: 79%   Direction: NA
Pressure: 30.27"   Gusts: NA
Location:  49.6°N, 87.95°W
Report Text: CYGQ 191700Z 00000KT 15SM SKC M14/M17 A3027 RMK SLP296
Loading
Personal Weather Stations






























Interactive Weather Map New forecast layout! Learn more

10-Day Weather Forecast

Advertisements
Track Severe Weather on mobile